Time;durP1;ratioP1;P1;durP2;ratioP2;P2;SDS_P1;SDS_P2;PMS_P1;PMS_P2;Temp;Humidity;BMP_temperature;BMP_pressure;BME280_temperature;BME280_humidity;BME280_pressure;Samples;Min_cycle;Max_cycle;Signal;HPM_P1;HPM_P2
2021/06/09 00:00:41;;;;;;;17.25;13.75;;;17.80;99.90;;;;;;5073907;28;20020;-85
2021/06/09 00:03:06;;;;;;;16.02;14.32;;;17.80;99.80;;;;;;5074310;28;20055;-85
2021/06/09 00:05:32;;;;;;;18.63;15.18;;;17.80;99.90;;;;;;5071541;28;20481;-84
2021/06/09 00:07:58;;;;;;;19.67;14.88;;;17.80;99.90;;;;;;5070138;28;20048;-86
2021/06/09 00:10:24;;;;;;;19.98;15.15;;;17.80;99.90;;;;;;5069720;28;20503;-84
2021/06/09 00:12:49;;;;;;;19.42;15.13;;;17.80;99.90;;;;;;5070086;28;20020;-84
2021/06/09 00:15:16;;;;;;;18.75;15.50;;;17.80;99.90;;;;;;5071407;28;20025;-84
2021/06/09 00:17:43;;;;;;;19.38;15.20;;;17.80;99.90;;;;;;5070504;28;20294;-86
2021/06/09 00:20:15;;;;;;;19.42;15.07;;;17.80;99.90;;;;;;5070141;28;20114;-84
2021/06/09 00:22:41;;;;;;;19.10;15.57;;;17.80;99.90;;;;;;5072348;28;20020;-84
2021/06/09 00:25:14;;;;;;;18.77;14.00;;;17.80;99.90;;;;;;5071037;28;20031;-86
2021/06/09 00:27:41;;;;;;;20.40;14.25;;;17.80;99.90;;;;;;5074495;28;20029;-86
2021/06/09 00:30:08;;;;;;;20.42;15.35;;;17.80;99.90;;;;;;5073129;28;20116;-86
2021/06/09 00:32:33;;;;;;;19.42;15.15;;;17.80;99.90;;;;;;5073291;28;20028;-86
2021/06/09 00:34:59;;;;;;;18.05;14.52;;;17.70;99.80;;;;;;5073525;28;20025;-86
2021/06/09 00:37:25;;;;;;;17.10;14.52;;;17.80;99.90;;;;;;5074720;28;20054;-86
2021/06/09 00:39:50;;;;;;;17.38;14.52;;;17.70;99.90;;;;;;5073019;28;20025;-86
2021/06/09 00:42:22;;;;;;;19.40;15.40;;;17.70;99.90;;;;;;5073501;28;20055;-86
2021/06/09 00:44:49;;;;;;;18.42;14.30;;;17.60;99.90;;;;;;5074871;28;20036;-86
2021/06/09 00:47:23;;;;;;;19.23;14.15;;;17.60;99.90;;;;;;5073564;28;20082;-86
2021/06/09 00:49:49;;;;;;;18.85;15.13;;;17.60;99.90;;;;;;5074498;28;20057;-86
2021/06/09 00:52:15;;;;;;;20.45;15.05;;;17.60;99.90;;;;;;5073287;28;20060;-86
2021/06/09 00:54:41;;;;;;;19.83;14.23;;;17.50;99.90;;;;;;5073391;28;20038;-86
2021/06/09 00:57:08;;;;;;;19.75;15.07;;;17.50;99.90;;;;;;5073283;28;20028;-86
2021/06/09 00:59:36;;;;;;;19.27;14.85;;;17.50;99.90;;;;;;5074101;28;20369;-86
2021/06/09 01:02:02;;;;;;;20.20;15.65;;;17.50;99.90;;;;;;5073022;28;20047;-86
2021/06/09 01:04:27;;;;;;;18.15;15.13;;;17.50;99.90;;;;;;5073059;28;20032;-86
2021/06/09 01:06:53;;;;;;;17.85;14.48;;;17.40;99.90;;;;;;5072879;28;20491;-86
2021/06/09 01:09:20;;;;;;;20.05;14.93;;;17.50;99.90;;;;;;5072475;28;20039;-86
2021/06/09 01:11:46;;;;;;;19.02;14.68;;;17.50;99.90;;;;;;5072944;28;20485;-86
2021/06/09 01:14:12;;;;;;;20.30;15.35;;;17.50;99.90;;;;;;5074034;28;20069;-86
2021/06/09 01:16:38;;;;;;;20.52;15.32;;;17.50;99.90;;;;;;5073979;28;20028;-86
2021/06/09 01:19:03;;;;;;;18.67;15.32;;;17.40;99.90;;;;;;5072319;28;20029;-86
2021/06/09 01:21:33;;;;;;;17.23;15.05;;;17.40;99.90;;;;;;5073911;28;20024;-86
2021/06/09 01:24:00;;;;;;;19.67;15.60;;;17.30;99.90;;;;;;5072855;28;20029;-86
2021/06/09 01:26:27;;;;;;;20.15;16.00;;;17.30;99.90;;;;;;5072621;28;20466;-86
2021/06/09 01:28:58;;;;;;;20.38;15.80;;;17.30;99.90;;;;;;5072296;28;20400;-86
2021/06/09 01:31:25;;;;;;;19.08;16.40;;;17.30;99.90;;;;;;5072782;28;20032;-86
2021/06/09 01:33:50;;;;;;;20.13;16.38;;;17.30;99.90;;;;;;5074039;28;20112;-86
2021/06/09 01:36:16;;;;;;;19.45;15.38;;;17.30;99.90;;;;;;5073578;28;20104;-86
2021/06/09 01:38:42;;;;;;;21.27;16.85;;;17.30;99.90;;;;;;5072489;28;20428;-86
2021/06/09 01:41:08;;;;;;;21.90;16.80;;;17.40;99.90;;;;;;5071803;28;20028;-86
2021/06/09 01:43:34;;;;;;;21.77;16.50;;;17.40;99.90;;;;;;5072669;28;20036;-86
2021/06/09 01:46:01;;;;;;;19.67;16.58;;;17.30;99.90;;;;;;5073631;28;20029;-86
2021/06/09 01:48:27;;;;;;;19.70;16.58;;;17.30;99.90;;;;;;5073438;28;20025;-86
2021/06/09 01:50:53;;;;;;;22.15;17.05;;;17.30;99.90;;;;;;5071795;28;20133;-86
2021/06/09 01:53:19;;;;;;;23.15;17.55;;;17.30;99.90;;;;;;5073283;28;20370;-86
2021/06/09 01:55:47;;;;;;;21.30;17.83;;;17.30;99.90;;;;;;5072141;28;20028;-86
2021/06/09 01:58:13;;;;;;;20.38;17.77;;;17.20;99.90;;;;;;5073254;28;20032;-86
2021/06/09 02:00:45;;;;;;;24.58;18.35;;;17.30;99.90;;;;;;5072689;28;20028;-86
2021/06/09 02:03:15;;;;;;;23.02;18.15;;;17.20;99.90;;;;;;5073364;28;20028;-86
2021/06/09 02:05:42;;;;;;;23.95;18.70;;;17.20;99.90;;;;;;5071854;28;20029;-86
2021/06/09 02:08:11;;;;;;;23.27;18.08;;;17.20;99.90;;;;;;5071819;28;20115;-87
2021/06/09 02:10:38;;;;;;;24.27;18.67;;;17.30;99.90;;;;;;5072495;28;20155;-86
2021/06/09 02:13:17;;;;;;;22.60;18.65;;;17.20;99.90;;;;;;5072886;28;20060;-86
2021/06/09 02:15:44;;;;;;;25.63;19.52;;;17.20;99.90;;;;;;5073093;28;20021;-86
2021/06/09 02:18:15;;;;;;;22.90;19.00;;;17.20;99.90;;;;;;5071606;28;20024;-87
2021/06/09 02:20:50;;;;;;;26.60;20.52;;;17.10;99.90;;;;;;5070761;28;20388;-86
2021/06/09 02:23:24;;;;;;;27.70;20.35;;;17.10;99.90;;;;;;5070525;28;20029;-86
2021/06/09 02:25:53;;;;;;;24.70;19.73;;;17.10;99.90;;;;;;5071550;28;20027;-86
2021/06/09 02:28:20;;;;;;;26.13;21.10;;;17.10;99.90;;;;;;5071427;28;20035;-86
2021/06/09 02:30:48;;;;;;;25.40;19.85;;;17.00;99.90;;;;;;5070980;28;20036;-86
2021/06/09 02:33:18;;;;;;;27.05;21.58;;;17.00;99.90;;;;;;5072542;28;20381;-86
2021/06/09 02:35:44;;;;;;;29.55;21.58;;;17.00;99.90;;;;;;5071325;28;20265;-86
2021/06/09 02:38:11;;;;;;;28.33;21.77;;;16.90;99.90;;;;;;5072565;28;20032;-86
2021/06/09 02:40:39;;;;;;;28.67;21.55;;;16.90;99.90;;;;;;5070677;28;20082;-86
2021/06/09 02:43:05;;;;;;;25.95;21.17;;;16.90;99.90;;;;;;5072319;28;20481;-86
2021/06/09 02:45:32;;;;;;;28.23;21.80;;;16.80;99.90;;;;;;5071248;28;20028;-86
2021/06/09 02:48:10;;;;;;;29.52;22.25;;;16.70;99.90;;;;;;5070961;28;20028;-86
2021/06/09 02:50:37;;;;;;;28.85;21.65;;;16.70;99.90;;;;;;5070241;28;20154;-86
2021/06/09 02:53:30;;;;;;;25.88;20.45;;;16.70;99.90;;;;;;5070854;28;20028;-86
2021/06/09 02:56:21;;;;;;;27.50;21.75;;;16.80;99.90;;;;;;5072406;28;20085;-86
2021/06/09 02:59:16;;;;;;;26.77;21.40;;;16.80;99.90;;;;;;5071965;28;20403;-86
2021/06/09 03:01:56;;;;;;;27.92;22.60;;;16.80;99.90;;;;;;5072172;28;20028;-86
2021/06/09 03:04:37;;;;;;;28.80;22.40;;;16.80;99.90;;;;;;5072193;28;20090;-86
2021/06/09 03:07:21;;;;;;;28.42;22.80;;;16.70;99.90;;;;;;5070860;28;20460;-86
2021/06/09 03:10:03;;;;;;;28.85;22.17;;;16.70;99.90;;;;;;5071510;28;20054;-86
2021/06/09 03:12:42;;;;;;;26.38;20.83;;;16.60;99.90;;;;;;5070809;28;20028;-86
2021/06/09 03:15:51;;;;;;;27.75;21.73;;;16.60;99.90;;;;;;5071785;28;20043;-86
2021/06/09 03:18:20;;;;;;;25.17;20.42;;;16.60;99.90;;;;;;5061271;28;20025;-86
2021/06/09 03:20:55;;;;;;;28.13;21.75;;;16.60;99.90;;;;;;5070306;28;20020;-86
2021/06/09 03:23:36;;;;;;;25.35;20.75;;;16.60;99.90;;;;;;5070474;28;20032;-86
2021/06/09 03:26:43;;;;;;;28.38;19.58;;;16.60;99.90;;;;;;5070808;28;20036;-87
2021/06/09 03:29:18;;;;;;;24.90;19.73;;;16.60;99.90;;;;;;5062984;28;20579;-85
2021/06/09 03:31:52;;;;;;;23.95;19.08;;;16.60;99.90;;;;;;5070508;28;20128;-86
2021/06/09 03:34:23;;;;;;;26.05;19.58;;;16.50;99.90;;;;;;5070503;28;20028;-86
2021/06/09 03:36:52;;;;;;;27.17;20.67;;;16.50;99.90;;;;;;5071760;28;20072;-86
2021/06/09 03:39:21;;;;;;;27.20;19.90;;;16.50;99.90;;;;;;5070052;28;20020;-86
2021/06/09 03:41:51;;;;;;;25.02;20.10;;;16.50;99.90;;;;;;5072297;28;20039;-86
2021/06/09 03:44:23;;;;;;;24.10;19.27;;;16.50;99.90;;;;;;5070462;28;20063;-86
2021/06/09 03:46:50;;;;;;;25.27;20.42;;;16.50;99.90;;;;;;5070351;28;20028;-86
2021/06/09 03:49:17;;;;;;;25.10;19.95;;;16.60;99.90;;;;;;5069891;28;20576;-86
2021/06/09 03:51:43;;;;;;;26.75;20.33;;;16.60;99.90;;;;;;5070337;28;20074;-86
2021/06/09 03:54:10;;;;;;;25.58;21.25;;;16.60;99.90;;;;;;5070346;28;20024;-86
2021/06/09 03:56:40;;;;;;;28.58;21.25;;;16.50;99.90;;;;;;5070373;28;20028;-86
2021/06/09 03:59:06;;;;;;;27.83;22.10;;;16.50;99.90;;;;;;5069726;28;20025;-86
2021/06/09 04:01:40;;;;;;;26.58;21.95;;;16.60;99.90;;;;;;5073202;28;20481;-86
2021/06/09 04:04:07;;;;;;;28.83;21.77;;;16.50;99.90;;;;;;5075691;28;20421;-86
2021/06/09 04:06:36;;;;;;;27.90;21.63;;;16.50;99.90;;;;;;5074116;28;20051;-86
2021/06/09 04:09:02;;;;;;;;;;;16.50;99.90;;;;;;5074093;28;20028;-86
2021/06/09 04:11:28;;;;;;;31.27;22.75;;;16.50;99.90;;;;;;5074198;28;20420;-86
2021/06/09 04:13:56;;;;;;;27.52;22.63;;;16.60;99.90;;;;;;5073983;28;20127;-86
2021/06/09 04:16:25;;;;;;;28.15;22.20;;;16.60;99.90;;;;;;5073878;28;20027;-86
2021/06/09 04:18:52;;;;;;;30.15;22.55;;;16.60;99.90;;;;;;5073897;28;20441;-86
2021/06/09 04:21:18;;;;;;;26.40;22.08;;;16.60;99.90;;;;;;5073785;28;20020;-86
2021/06/09 04:23:44;;;;;;;28.98;22.45;;;16.60;99.90;;;;;;5075004;28;20500;-86
2021/06/09 04:26:14;;;;;;;28.35;21.85;;;16.70;99.90;;;;;;5075003;28;20021;-85
2021/06/09 04:28:42;;;;;;;28.85;23.10;;;16.80;99.90;;;;;;5073849;28;20024;-86
2021/06/09 04:31:08;;;;;;;29.02;23.27;;;16.80;99.90;;;;;;5073180;28;20028;-86
2021/06/09 04:33:34;;;;;;;32.30;23.90;;;16.80;99.90;;;;;;5073662;28;20427;-86
2021/06/09 04:36:00;;;;;;;30.73;23.67;;;16.70;99.90;;;;;;5073601;28;20035;-86
2021/06/09 04:38:25;;;;;;;30.25;24.45;;;16.70;99.90;;;;;;5073525;28;20032;-86
2021/06/09 04:40:52;;;;;;;30.42;24.20;;;16.80;99.90;;;;;;5074389;28;20477;-86
2021/06/09 04:43:21;;;;;;;30.85;23.55;;;16.90;99.90;;;;;;5073547;28;20029;-86
2021/06/09 04:45:47;;;;;;;31.40;23.98;;;16.90;99.90;;;;;;5074880;28;20025;-86
2021/06/09 04:48:15;;;;;;;30.17;23.48;;;17.00;99.90;;;;;;5073906;28;20388;-86
2021/06/09 04:50:42;;;;;;;33.40;23.83;;;17.00;99.90;;;;;;5073377;28;20063;-86
2021/06/09 04:53:11;;;;;;;30.20;23.42;;;17.00;99.90;;;;;;5073294;28;20047;-86
2021/06/09 04:55:41;;;;;;;32.65;24.95;;;17.00;99.90;;;;;;5073385;28;20039;-86
2021/06/09 04:58:07;;;;;;;32.10;24.98;;;17.10;99.90;;;;;;5074702;28;20052;-85
2021/06/09 05:00:33;;;;;;;33.63;25.70;;;17.10;99.90;;;;;;5072677;28;20028;-86
2021/06/09 05:03:01;;;;;;;35.28;26.77;;;17.10;99.90;;;;;;5073093;28;20135;-86
2021/06/09 05:05:27;;;;;;;35.33;27.13;;;17.10;99.90;;;;;;5074549;28;20036;-86
2021/06/09 05:07:52;;;;;;;39.90;27.80;;;17.10;99.90;;;;;;5074956;28;20016;-86
2021/06/09 05:10:19;;;;;;;33.72;26.88;;;17.20;99.90;;;;;;5074296;28;20029;-86
2021/06/09 05:12:53;;;;;;;34.75;27.95;;;17.20;99.90;;;;;;5075798;28;20029;-86
2021/06/09 05:15:21;;;;;;;35.42;26.80;;;17.20;99.90;;;;;;5075385;28;20028;-86
2021/06/09 05:18:06;;;;;;;39.17;27.02;;;17.30;99.90;;;;;;5074335;28;20024;-87
2021/06/09 05:20:34;;;;;;;35.55;26.08;;;17.30;99.90;;;;;;5072968;28;20027;-86
2021/06/09 05:23:13;;;;;;;36.92;26.58;;;17.40;99.90;;;;;;5072968;28;20032;-86
2021/06/09 05:25:40;;;;;;;37.83;27.35;;;17.40;99.90;;;;;;5074117;28;20431;-86
2021/06/09 05:28:08;;;;;;;34.33;26.52;;;17.50;99.90;;;;;;5072657;28;20555;-86
2021/06/09 05:30:35;;;;;;;40.65;27.02;;;17.50;99.90;;;;;;5073219;28;20024;-86
2021/06/09 05:33:02;;;;;;;33.85;26.73;;;17.50;99.90;;;;;;5072212;28;20025;-86
2021/06/09 05:35:28;;;;;;;38.50;28.40;;;17.60;99.90;;;;;;5072613;28;20024;-86
2021/06/09 05:37:54;;;;;;;37.55;28.40;;;17.60;99.90;;;;;;5116631;22;20127;-86
2021/06/09 05:40:20;;;;;;;36.70;28.08;;;17.70;99.90;;;;;;5129740;27;20103;-86
2021/06/09 05:42:47;;;;;;;37.80;28.92;;;17.70;99.90;;;;;;5130108;27;20493;-86
2021/06/09 05:45:14;;;;;;;40.55;28.35;;;17.70;99.90;;;;;;5131015;27;20055;-85
2021/06/09 05:47:45;;;;;;;38.05;27.35;;;17.80;99.90;;;;;;5121900;27;20077;-86
2021/06/09 05:50:25;;;;;;;40.95;28.33;;;17.80;99.90;;;;;;5093021;28;20392;-86
2021/06/09 05:52:53;;;;;;;40.58;27.05;;;17.80;99.90;;;;;;5094737;28;20024;-86
2021/06/09 05:55:21;;;;;;;37.00;26.02;;;17.90;99.90;;;;;;5093611;28;20027;-86
2021/06/09 05:57:48;;;;;;;43.65;26.77;;;18.00;99.90;;;;;;5093472;28;20093;-85
2021/06/09 06:00:16;;;;;;;37.88;26.08;;;18.00;99.90;;;;;;5096940;28;20441;-85
2021/06/09 06:02:42;;;;;;;45.15;28.23;;;18.10;99.90;;;;;;5096947;28;20028;-85
2021/06/09 06:05:09;;;;;;;35.88;25.88;;;18.10;99.90;;;;;;5096554;28;20031;-85
2021/06/09 06:07:36;;;;;;;41.20;27.98;;;18.20;99.90;;;;;;5098755;28;20020;-85
2021/06/09 06:10:05;;;;;;;36.95;26.35;;;18.20;99.90;;;;;;5096057;28;20464;-86
2021/06/09 06:12:32;;;;;;;40.75;26.30;;;18.20;99.90;;;;;;5098289;28;20028;-85
2021/06/09 06:14:58;;;;;;;39.58;29.58;;;18.20;99.90;;;;;;5094963;28;20480;-86
2021/06/09 06:17:23;;;;;;;36.67;27.17;;;18.30;99.90;;;;;;5094020;28;20022;-86
2021/06/09 06:19:50;;;;;;;32.28;24.70;;;18.40;99.90;;;;;;5093550;28;20020;-86
2021/06/09 06:22:17;;;;;;;31.35;25.30;;;18.30;99.90;;;;;;5093836;28;20369;-85
2021/06/09 06:24:46;;;;;;;38.90;27.08;;;18.40;99.90;;;;;;5097883;28;20044;-86
2021/06/09 06:27:13;;;;;;;37.97;29.00;;;18.40;99.90;;;;;;5099180;28;20020;-86
2021/06/09 06:29:40;;;;;;;31.95;25.00;;;18.50;99.90;;;;;;5098664;28;20081;-85
2021/06/09 06:32:08;;;;;;;34.90;26.13;;;18.50;99.90;;;;;;5098017;28;20020;-85
2021/06/09 06:34:39;;;;;;;30.40;23.30;;;18.50;99.90;;;;;;5097181;28;20027;-85
2021/06/09 06:37:06;;;;;;;33.47;24.40;;;18.60;99.90;;;;;;5098123;28;20438;-85
2021/06/09 06:39:33;;;;;;;37.88;29.50;;;18.60;99.90;;;;;;5097172;28;20027;-85
2021/06/09 06:41:59;;;;;;;36.60;27.33;;;18.60;99.90;;;;;;5097229;28;20024;-85
2021/06/09 06:44:27;;;;;;;35.20;27.63;;;18.60;99.90;;;;;;5098462;28;20088;-85
2021/06/09 06:46:53;;;;;;;33.60;27.20;;;18.60;99.90;;;;;;5097969;28;20362;-85
2021/06/09 06:49:19;;;;;;;32.42;26.15;;;18.70;99.90;;;;;;5098221;28;20465;-85
2021/06/09 06:51:46;;;;;;;31.00;25.05;;;18.70;99.90;;;;;;5098689;28;20107;-84
2021/06/09 06:54:12;;;;;;;29.33;23.08;;;18.80;99.90;;;;;;5098756;28;20165;-85
2021/06/09 06:56:39;;;;;;;32.22;24.08;;;18.80;99.90;;;;;;5101404;28;20026;-85
2021/06/09 06:59:05;;;;;;;31.15;23.35;;;18.80;99.90;;;;;;5100410;28;20024;-85
2021/06/09 07:01:34;;;;;;;31.30;23.20;;;18.90;99.90;;;;;;5103292;28;20512;-85
2021/06/09 07:04:01;;;;;;;;;;;18.90;99.90;;;;;;5095353;28;20080;-86
2021/06/09 07:06:28;;;;;;;33.88;23.80;;;18.90;99.90;;;;;;5092934;28;20477;-85
2021/06/09 07:08:54;;;;;;;33.72;25.80;;;18.90;99.90;;;;;;5092417;28;20030;-86
2021/06/09 07:11:20;;;;;;;30.63;24.23;;;19.00;99.90;;;;;;5091563;28;20374;-85
2021/06/09 07:13:46;;;;;;;40.70;27.92;;;19.00;99.90;;;;;;5094273;28;20472;-86
2021/06/09 07:16:13;;;;;;;40.47;30.83;;;19.00;99.70;;;;;;5091759;28;20023;-86
2021/06/09 07:18:46;;;;;;;38.00;27.55;;;19.00;99.90;;;;;;5091678;28;20365;-86
2021/06/09 07:21:21;;;;;;;37.80;28.85;;;19.10;99.50;;;;;;5091294;28;20059;-85
2021/06/09 07:23:47;;;;;;;39.67;28.75;;;19.10;99.50;;;;;;5094122;28;20038;-86
2021/06/09 07:26:15;;;;;;;37.60;25.98;;;19.10;99.50;;;;;;5095226;28;20046;-87
2021/06/09 07:28:45;;;;;;;60.25;35.10;;;19.20;99.40;;;;;;5093283;28;20101;-86
2021/06/09 07:31:15;;;;;;;45.72;30.40;;;19.20;98.90;;;;;;5093950;28;20039;-85
2021/06/09 07:33:40;;;;;;;46.78;33.22;;;19.20;98.80;;;;;;5091544;28;20036;-85
2021/06/09 07:36:09;;;;;;;45.47;31.50;;;19.30;98.60;;;;;;5093667;28;20380;-85
2021/06/09 07:38:42;;;;;;;42.15;30.48;;;19.40;98.40;;;;;;5094795;28;20024;-85
2021/06/09 07:41:09;;;;;;;50.90;35.97;;;19.40;98.40;;;;;;5091929;28;20063;-86
2021/06/09 07:43:38;;;;;;;44.97;32.47;;;19.40;98.40;;;;;;5092755;28;20396;-84
2021/06/09 07:46:07;;;;;;;39.40;28.58;;;19.50;98.30;;;;;;5091183;28;20028;-86
2021/06/09 07:48:33;;;;;;;;;;;19.50;98.40;;;;;;5091964;28;20028;-85
2021/06/09 07:51:07;;;;;;;46.00;33.63;;;19.50;98.40;;;;;;5090683;28;20375;-85
2021/06/09 07:53:35;;;;;;;42.38;30.20;;;19.50;98.30;;;;;;5093624;28;20035;-84
2021/06/09 07:56:01;;;;;;;43.38;34.05;;;19.50;98.30;;;;;;5096304;28;20073;-85
2021/06/09 07:58:28;;;;;;;54.17;37.13;;;19.70;97.70;;;;;;5094524;28;20030;-85
2021/06/09 08:00:58;;;;;;;48.10;33.30;;;19.70;97.50;;;;;;5095059;28;20016;-85
2021/06/09 08:03:26;;;;;;;44.67;31.45;;;19.70;97.50;;;;;;5093822;28;20492;-85
2021/06/09 08:05:53;;;;;;;53.42;35.75;;;19.70;97.40;;;;;;5093838;28;20035;-85
2021/06/09 08:08:19;;;;;;;51.50;36.78;;;19.70;97.50;;;;;;5095596;28;20028;-85
2021/06/09 08:10:46;;;;;;;41.97;30.45;;;19.80;97.30;;;;;;5093170;28;20035;-85
2021/06/09 08:13:12;;;;;;;51.63;36.33;;;19.80;97.10;;;;;;5093991;28;20024;-86
2021/06/09 08:15:39;;;;;;;39.67;30.48;;;19.80;97.20;;;;;;5092905;28;20089;-85
2021/06/09 08:18:05;;;;;;;32.70;24.98;;;19.90;96.80;;;;;;5093200;28;20119;-85
2021/06/09 08:20:32;;;;;;;31.50;24.17;;;19.80;96.80;;;;;;5092476;28;20020;-85
2021/06/09 08:22:58;;;;;;;33.13;24.92;;;19.80;96.90;;;;;;5094010;28;20024;-86
2021/06/09 08:25:24;;;;;;;45.53;32.40;;;19.80;97.10;;;;;;5093556;28;20028;-85
2021/06/09 08:27:53;;;;;;;41.03;31.67;;;19.80;96.90;;;;;;5094903;28;20531;-86
2021/06/09 08:30:21;;;;;;;37.15;27.20;;;20.00;96.20;;;;;;5093495;28;20020;-85
2021/06/09 08:32:48;;;;;;;34.50;25.80;;;19.90;96.20;;;;;;5094515;28;20029;-85
2021/06/09 08:35:14;;;;;;;44.50;31.80;;;20.00;96.40;;;;;;5093752;28;20024;-85
2021/06/09 08:37:40;;;;;;;47.17;33.22;;;20.10;96.50;;;;;;5092960;28;20032;-85
2021/06/09 08:40:08;;;;;;;41.63;29.25;;;20.10;96.40;;;;;;5094359;28;20058;-85
2021/06/09 08:42:36;;;;;;;43.28;30.73;;;20.10;96.50;;;;;;5093214;28;20021;-85
2021/06/09 08:45:05;;;;;;;34.57;26.57;;;20.20;96.00;;;;;;5094718;28;20107;-85
2021/06/09 08:47:31;;;;;;;41.78;30.83;;;20.30;96.20;;;;;;5096002;28;20742;-86
2021/06/09 08:49:57;;;;;;;38.85;28.23;;;20.30;95.80;;;;;;5095938;28;20036;-86
2021/06/09 08:52:26;;;;;;;36.45;25.65;;;20.40;96.00;;;;;;5096957;28;20016;-85
2021/06/09 08:54:52;;;;;;;;;;;20.40;96.20;;;;;;5095062;28;20078;-86
2021/06/09 08:57:17;;;;;;;35.70;26.60;;;20.40;96.10;;;;;;5094625;28;19904;-86
2021/06/09 08:59:44;;;;;;;32.28;24.35;;;20.50;96.00;;;;;;5094164;28;20480;-85
2021/06/09 09:02:14;;;;;;;33.25;25.25;;;20.50;96.40;;;;;;5094501;28;20063;-85
2021/06/09 09:04:41;;;;;;;32.72;24.35;;;20.50;96.00;;;;;;5094716;28;20052;-85
2021/06/09 09:07:08;;;;;;;36.80;27.33;;;20.50;96.00;;;;;;5095382;28;20061;-86
2021/06/09 09:09:34;;;;;;;42.28;29.15;;;20.50;95.50;;;;;;5093778;28;20433;-86
2021/06/09 09:12:01;;;;;;;28.55;23.33;;;20.60;94.80;;;;;;5094250;28;20032;-86
2021/06/09 09:14:26;;;;;;;34.13;22.65;;;20.50;94.90;;;;;;5094199;28;20024;-86
2021/06/09 09:17:04;;;;;;;29.08;20.73;;;20.60;94.00;;;;;;5094158;28;20068;-85
2021/06/09 09:19:32;;;;;;;27.52;20.23;;;20.60;93.50;;;;;;5093764;28;20388;-85
2021/06/09 09:21:58;;;;;;;26.80;19.15;;;20.60;93.40;;;;;;5094065;28;20547;-85
2021/06/09 09:24:43;;;;;;;34.17;23.42;;;20.70;93.70;;;;;;5094006;28;20066;-85
2021/06/09 09:27:10;;;;;;;32.47;22.45;;;20.80;93.70;;;;;;5095314;28;20052;-86
2021/06/09 09:29:36;;;;;;;36.20;23.52;;;20.90;93.90;;;;;;5095001;28;20380;-85
2021/06/09 09:32:09;;;;;;;29.58;23.05;;;20.90;93.50;;;;;;5094101;28;20020;-86
2021/06/09 09:34:38;;;;;;;28.85;21.65;;;21.00;93.60;;;;;;5094192;28;20388;-86
2021/06/09 09:37:05;;;;;;;24.73;19.27;;;21.00;93.70;;;;;;5095037;28;20088;-85
2021/06/09 09:39:31;;;;;;;31.38;25.02;;;20.90;93.90;;;;;;5096282;28;20024;-85
2021/06/09 09:41:57;;;;;;;26.88;20.45;;;21.00;93.60;;;;;;5095262;28;20118;-85
2021/06/09 09:44:22;;;;;;;30.83;24.00;;;21.00;93.60;;;;;;5095021;28;20030;-86
2021/06/09 09:46:53;;;;;;;32.88;23.42;;;21.00;93.70;;;;;;5094912;28;20480;-86
2021/06/09 09:49:19;;;;;;;28.45;21.17;;;21.00;93.80;;;;;;5094180;28;20024;-86
2021/06/09 09:51:47;;;;;;;30.60;25.15;;;20.90;94.10;;;;;;5094605;28;20031;-86
2021/06/09 09:54:14;;;;;;;32.00;24.92;;;21.00;93.50;;;;;;5093337;28;20039;-86
2021/06/09 09:56:41;;;;;;;30.40;23.48;;;21.00;93.30;;;;;;5094415;28;20099;-86
2021/06/09 09:59:10;;;;;;;25.05;21.17;;;21.00;92.80;;;;;;5092900;28;20024;-86
2021/06/09 10:01:51;;;;;;;23.70;19.65;;;21.20;92.70;;;;;;5093156;28;20024;-86
2021/06/09 10:04:19;;;;;;;26.15;20.88;;;21.20;92.50;;;;;;5094402;28;20023;-86
2021/06/09 10:06:47;;;;;;;26.52;22.45;;;21.20;92.60;;;;;;5093132;28;20059;-86
2021/06/09 10:09:21;;;;;;;21.20;17.40;;;21.20;92.30;;;;;;5093655;28;20500;-86
2021/06/09 10:11:56;;;;;;;19.02;15.98;;;21.20;92.40;;;;;;5092822;28;20084;-86
2021/06/09 10:14:23;;;;;;;24.73;19.50;;;21.20;92.70;;;;;;5094226;28;20468;-86
2021/06/09 10:17:03;;;;;;;24.95;18.60;;;21.20;93.00;;;;;;5092803;28;20035;-86
2021/06/09 10:19:31;;;;;;;22.00;18.45;;;21.30;92.90;;;;;;5092432;28;20031;-86
2021/06/09 10:22:03;;;;;;;22.85;18.80;;;21.30;92.40;;;;;;5094439;28;20031;-86
2021/06/09 10:24:30;;;;;;;22.33;18.63;;;21.20;92.50;;;;;;5094194;28;20361;-86
2021/06/09 10:27:05;;;;;;;19.92;16.70;;;21.20;92.70;;;;;;5094128;28;20024;-86
2021/06/09 10:29:31;;;;;;;23.38;18.15;;;21.20;92.10;;;;;;5093708;28;20020;-86
2021/06/09 10:32:05;;;;;;;20.58;16.85;;;21.30;92.00;;;;;;5092220;28;20043;-86
2021/06/09 10:34:35;;;;;;;22.50;17.60;;;21.30;92.00;;;;;;5092365;28;20028;-86
2021/06/09 10:37:04;;;;;;;26.75;19.60;;;21.40;91.50;;;;;;5092409;28;20039;-86
2021/06/09 10:39:33;;;;;;;16.65;14.68;;;21.50;91.10;;;;;;5093393;28;20024;-86
2021/06/09 10:42:00;;;;;;;;;;;21.50;91.30;;;;;;5094224;28;20024;-86
2021/06/09 10:44:37;;;;;;;25.48;20.52;;;21.50;92.00;;;;;;5092289;28;19942;-86
2021/06/09 10:47:04;;;;;;;25.45;20.42;;;21.60;92.20;;;;;;5092587;28;20339;-86
2021/06/09 10:49:35;;;;;;;23.35;17.52;;;21.80;91.40;;;;;;5091911;28;20027;-86
2021/06/09 10:52:03;;;;;;;26.50;21.55;;;21.80;91.30;;;;;;5093185;28;20020;-85
2021/06/09 10:54:29;;;;;;;22.33;19.80;;;21.90;90.80;;;;;;5093642;28;20031;-86
2021/06/09 10:56:56;;;;;;;20.00;16.90;;;21.90;90.70;;;;;;5092998;28;20028;-86
2021/06/09 10:59:27;;;;;;;21.80;18.05;;;21.90;91.00;;;;;;5092259;28;20020;-86
2021/06/09 11:02:04;;;;;;;19.17;15.48;;;21.90;90.60;;;;;;5093761;28;20012;-86
2021/06/09 11:04:39;;;;;;;17.52;14.60;;;21.90;90.60;;;;;;5092606;28;20036;-86
2021/06/09 11:07:31;;;;;;;24.13;19.73;;;21.80;90.80;;;;;;5093589;28;20024;-86
2021/06/09 11:10:05;;;;;;;23.77;19.05;;;21.90;90.40;;;;;;5092697;28;20069;-85
2021/06/09 11:12:38;;;;;;;21.52;17.88;;;22.10;90.50;;;;;;5093550;28;20020;-86
2021/06/09 11:15:18;;;;;;;23.38;17.05;;;22.00;90.30;;;;;;5092730;28;20051;-86
2021/06/09 11:18:12;;;;;;;21.77;16.92;;;22.00;90.50;;;;;;5092772;28;20095;-86
2021/06/09 11:20:51;;;;;;;23.35;19.05;;;22.00;90.50;;;;;;5087982;28;20043;-85
2021/06/09 11:23:29;;;;;;;24.48;20.98;;;22.30;88.20;;;;;;5092947;28;20016;-86
2021/06/09 11:25:55;;;;;;;21.55;18.10;;;22.40;87.70;;;;;;5093388;28;20492;-86
2021/06/09 11:28:33;;;;;;;15.32;12.75;;;22.30;88.00;;;;;;5092000;28;20060;-86
2021/06/09 11:31:00;;;;;;;16.42;13.85;;;22.20;88.90;;;;;;5092741;28;20024;-86
2021/06/09 11:33:37;;;;;;;14.45;12.88;;;22.10;89.60;;;;;;5093082;28;20476;-86
2021/06/09 11:36:17;;;;;;;14.52;11.55;;;22.10;89.70;;;;;;5092145;28;20121;-86
2021/06/09 11:38:45;;;;;;;15.20;12.20;;;22.00;88.70;;;;;;5114830;22;20546;-85
2021/06/09 11:41:15;;;;;;;11.75;9.50;;;22.10;86.70;;;;;;5073287;28;20027;-85
2021/06/09 11:43:46;;;;;;;15.07;12.70;;;22.10;86.20;;;;;;5094084;28;20020;-84
2021/06/09 11:46:12;;;;;;;13.63;10.15;;;22.10;83.60;;;;;;5074183;28;20024;-85
2021/06/09 11:48:39;;;;;;;12.32;10.43;;;22.10;83.50;;;;;;5092579;28;20028;-84
2021/06/09 11:51:20;;;;;;;15.57;13.10;;;22.10;84.00;;;;;;5090547;28;20036;-84
2021/06/09 11:53:50;;;;;;;13.30;11.50;;;22.30;84.10;;;;;;5092234;28;20028;-84
2021/06/09 11:56:17;;;;;;;20.95;13.52;;;22.40;84.00;;;;;;5090826;28;20016;-84
2021/06/09 11:58:45;;;;;;;13.88;11.52;;;22.60;85.60;;;;;;5091899;28;20077;-84
2021/06/09 12:01:13;;;;;;;19.88;13.55;;;22.50;84.80;;;;;;5073721;28;20084;-84
2021/06/09 12:03:42;;;;;;;15.48;12.18;;;22.50;86.10;;;;;;5091921;28;20028;-84
2021/06/09 12:06:11;;;;;;;;;;;22.60;84.70;;;;;;5074249;28;20027;-84
2021/06/09 12:08:37;;;;;;;11.15;9.60;;;22.60;85.40;;;;;;5073597;28;19963;-84
2021/06/09 12:11:03;;;;;;;15.68;11.93;;;22.60;84.90;;;;;;5073684;28;20069;-84
2021/06/09 12:13:29;;;;;;;11.70;10.45;;;22.50;85.00;;;;;;5091846;28;20032;-84
2021/06/09 12:16:17;;;;;;;14.88;12.38;;;22.50;84.90;;;;;;5073622;28;20115;-84
2021/06/09 12:18:47;;;;;;;16.45;13.55;;;22.60;84.80;;;;;;5073480;28;20020;-84
2021/06/09 12:21:17;;;;;;;16.75;13.77;;;22.90;84.20;;;;;;5073439;28;20024;-86
2021/06/09 12:23:57;;;;;;;16.27;12.60;;;22.90;83.20;;;;;;5093441;28;20032;-86
2021/06/09 12:26:22;;;;;;;13.98;11.38;;;22.90;81.30;;;;;;5094250;28;20031;-86
2021/06/09 12:29:03;;;;;;;15.07;11.98;;;23.00;81.40;;;;;;5077136;28;20031;-86
2021/06/09 12:31:29;;;;;;;13.48;11.93;;;23.10;80.50;;;;;;5077206;28;20111;-86
2021/06/09 12:33:55;;;;;;;14.68;10.20;;;23.20;81.50;;;;;;5077090;28;20505;-87
2021/06/09 12:36:21;;;;;;;14.10;11.95;;;23.40;82.00;;;;;;5077086;28;20052;-86
2021/06/09 12:38:46;;;;;;;11.90;10.70;;;23.50;78.80;;;;;;5095431;28;20086;-86